Аэропорт: Угольный. Анадырь

ICAO: UHMA

METAR:
2019-07-24 01:00:00
UHMA 240100Z 15002MPS 100V220 9999 -SHRA SCT011 BKN023CB BKN035 12/09 Q1004 R19/60D NOSIG RMK END R19/16003MPS QFE747/0997
METAR:
2019-07-23 22:57:00
TAF UHMA 232257Z 2400/2424 36006MPS 9999 -RA SCT010 BKN020 TEMPO 2400/2403 30003MPS 4000 -SHRA BR SCT003 BKN015CB BECMG 2403/2405 11006MPS TEMPO 2405/2421 05003MPS 3100 BR BKN005 BECMG 2421/2423 33005MPS